Time;durP1;ratioP1;P1;durP2;ratioP2;P2;SDS_P1;SDS_P2;PMS_P1;PMS_P2;Temp;Humidity;BMP_temperature;BMP_pressure;BME280_temperature;BME280_humidity;BME280_pressure;Samples;Min_cycle;Max_cycle;Signal;HPM_P1;HPM_P2
2022/05/21 00:01:30;;;;;;;7.53;6.27;;;;;;;;;;4994989;28;20237;-73
2022/05/21 00:03:58;;;;;;;8.40;6.23;;;;;;;;;;4985519;28;20221;-72
2022/05/21 00:06:24;;;;;;;6.80;6.17;;;;;;;;;;4950704;28;20308;-73
2022/05/21 00:08:54;;;;;;;8.13;6.57;;;;;;;;;;4949175;28;20229;-72
2022/05/21 00:11:19;;;;;;;9.67;7.30;;;;;;;;;;4955752;28;20725;-73
2022/05/21 00:13:47;;;;;;;9.10;6.83;;;;;;;;;;4992356;28;20300;-72
2022/05/21 00:16:12;;;;;;;7.60;6.87;;;;;;;;;;4971306;28;20703;-72
2022/05/21 00:18:40;;;;;;;7.33;6.60;;;;;;;;;;4990072;28;20231;-72
2022/05/21 00:21:11;;;;;;;8.50;6.80;;;;;;;;;;4975493;28;20225;-72
2022/05/21 00:23:36;;;;;;;7.67;6.63;;;;;;;;;;5000160;28;20228;-72
2022/05/21 00:26:10;;;;;;;10.43;6.60;;;;;;;;;;4976382;28;20225;-72
2022/05/21 00:28:43;;;;;;;7.10;6.40;;;;;;;;;;4982857;28;20707;-73
2022/05/21 00:31:12;;;;;;;6.37;5.60;;;;;;;;;;5003380;28;20222;-71
2022/05/21 00:33:38;;;;;;;5.37;4.60;;;;;;;;;;5001243;28;20252;-73
2022/05/21 00:36:05;;;;;;;6.47;3.97;;;;;;;;;;4977550;28;20227;-71
2022/05/21 00:38:35;;;;;;;6.70;4.07;;;;;;;;;;4975381;28;20228;-71
2022/05/21 00:41:04;;;;;;;3.70;3.40;;;;;;;;;;4969586;28;20712;-74
2022/05/21 00:43:33;;;;;;;4.67;4.17;;;;;;;;;;4991593;28;20216;-73
2022/05/21 00:46:03;;;;;;;4.83;4.43;;;;;;;;;;5002803;28;20239;-73
2022/05/21 00:48:31;;;;;;;5.30;4.83;;;;;;;;;;5006230;28;20344;-73
2022/05/21 00:50:57;;;;;;;5.77;5.27;;;;;;;;;;4992732;28;20320;-72
2022/05/21 00:53:22;;;;;;;6.37;5.57;;;;;;;;;;5002640;28;20335;-72
2022/05/21 00:55:50;;;;;;;8.07;6.40;;;;;;;;;;4977831;28;20225;-71
2022/05/21 01:01:07;;;;;;;9.20;8.40;;;;;;;;;;4980530;28;20292;-72
2022/05/21 01:03:37;;;;;;;9.00;8.03;;;;;;;;;;4974153;28;20217;-72
2022/05/21 01:06:03;;;;;;;10.23;9.27;;;;;;;;;;5006512;28;20220;-72
2022/05/21 01:08:31;;;;;;;10.67;9.77;;;;;;;;;;4993041;28;20247;-72
2022/05/21 01:11:00;;;;;;;10.67;9.67;;;;;;;;;;4985697;28;20299;-72
2022/05/21 01:13:26;;;;;;;10.20;9.30;;;;;;;;;;4968801;28;20223;-73
2022/05/21 01:15:54;;;;;;;10.50;9.47;;;;;;;;;;4972486;28;20217;-72
2022/05/21 01:18:22;;;;;;;10.10;9.07;;;;;;;;;;4986118;28;20236;-72
2022/05/21 01:20:56;;;;;;;10.97;9.90;;;;;;;;;;4991960;28;20233;-72
2022/05/21 01:23:21;;;;;;;10.47;9.57;;;;;;;;;;5006784;28;20232;-72
2022/05/21 01:25:47;;;;;;;10.03;9.20;;;;;;;;;;4993578;28;20213;-73
2022/05/21 01:28:14;;;;;;;10.00;9.10;;;;;;;;;;4967240;28;20224;-73
2022/05/21 01:30:43;;;;;;;10.77;9.70;;;;;;;;;;4968662;28;20217;-71
2022/05/21 01:33:12;;;;;;;9.93;9.13;;;;;;;;;;5005962;28;20603;-72
2022/05/21 01:35:39;;;;;;;9.97;9.17;;;;;;;;;;4987189;28;20217;-72
2022/05/21 01:38:07;;;;;;;10.00;9.20;;;;;;;;;;4988095;28;20279;-72
2022/05/21 01:40:35;;;;;;;9.27;8.47;;;;;;;;;;4996527;28;20306;-73
2022/05/21 01:45:51;;;;;;;7.83;7.03;;;;;;;;;;5000622;28;20267;-72
2022/05/21 01:48:21;;;;;;;7.13;6.53;;;;;;;;;;5000114;28;20236;-72
2022/05/21 01:50:47;;;;;;;6.20;5.63;;;;;;;;;;5001602;28;20231;-73
2022/05/21 01:53:12;;;;;;;6.67;5.90;;;;;;;;;;4991554;28;20225;-73
2022/05/21 01:55:41;;;;;;;6.90;5.83;;;;;;;;;;5005728;28;20319;-71
2022/05/21 01:58:06;;;;;;;7.20;5.27;;;;;;;;;;4972862;28;20729;-72
2022/05/21 02:00:34;;;;;;;5.40;4.90;;;;;;;;;;4991948;28;20235;-72
2022/05/21 02:03:05;;;;;;;4.93;4.53;;;;;;;;;;4966406;28;20221;-74
2022/05/21 02:05:33;;;;;;;4.43;4.03;;;;;;;;;;5000482;28;20602;-73
2022/05/21 02:07:58;;;;;;;5.67;4.40;;;;;;;;;;5002565;28;20228;-71
2022/05/21 02:10:27;;;;;;;4.77;4.30;;;;;;;;;;4994648;28;20650;-72
2022/05/21 02:12:55;;;;;;;4.20;3.80;;;;;;;;;;4995367;28;20308;-72
2022/05/21 02:15:20;;;;;;;4.50;4.10;;;;;;;;;;4994228;28;20253;-72
2022/05/21 02:17:48;;;;;;;3.97;3.57;;;;;;;;;;4994172;28;20221;-72
2022/05/21 02:20:18;;;;;;;5.47;3.93;;;;;;;;;;5005094;28;20232;-73
2022/05/21 02:22:48;;;;;;;4.07;3.73;;;;;;;;;;5001437;28;20849;-72
2022/05/21 02:25:16;;;;;;;4.30;3.90;;;;;;;;;;4991849;28;20324;-73
2022/05/21 02:27:44;;;;;;;4.20;3.80;;;;;;;;;;4993049;28;20217;-73
2022/05/21 02:30:10;;;;;;;5.67;3.53;;;;;;;;;;4982407;28;20239;-72
2022/05/21 02:32:36;;;;;;;4.40;4.00;;;;;;;;;;5004961;28;20358;-71
2022/05/21 02:35:01;;;;;;;4.40;4.00;;;;;;;;;;4993479;28;20317;-71
2022/05/21 02:40:16;;;;;;;5.17;4.67;;;;;;;;;;5003279;28;20234;-71
2022/05/21 02:42:46;;;;;;;5.80;4.20;;;;;;;;;;4984635;28;20271;-72
2022/05/21 02:45:20;;;;;;;5.30;4.77;;;;;;;;;;5002388;28;20612;-71
2022/05/21 02:47:49;;;;;;;4.73;4.33;;;;;;;;;;4977599;28;20252;-71
2022/05/21 02:50:16;;;;;;;4.40;4.00;;;;;;;;;;4991885;28;20578;-72
2022/05/21 02:52:41;;;;;;;4.77;4.37;;;;;;;;;;4992093;28;20221;-72
2022/05/21 02:55:08;;;;;;;5.47;4.37;;;;;;;;;;4985326;28;20593;-73
2022/05/21 02:57:36;;;;;;;6.93;4.70;;;;;;;;;;4984503;28;20610;-74
2022/05/21 03:00:07;;;;;;;6.23;3.97;;;;;;;;;;5002808;28;20237;-72
2022/05/21 03:02:37;;;;;;;4.77;4.37;;;;;;;;;;5004930;28;20221;-73
2022/05/21 03:05:05;;;;;;;4.50;4.10;;;;;;;;;;4992162;28;20233;-72
2022/05/21 03:07:42;;;;;;;4.63;4.23;;;;;;;;;;4996770;28;20700;-73
2022/05/21 03:10:21;;;;;;;4.93;4.37;;;;;;;;;;5008775;28;20229;-72
2022/05/21 03:12:48;;;;;;;4.53;4.13;;;;;;;;;;4977299;28;20290;-72
2022/05/21 03:15:16;;;;;;;4.70;3.87;;;;;;;;;;4987194;28;20225;-73
2022/05/21 03:17:43;;;;;;;5.57;4.97;;;;;;;;;;4966325;28;20225;-72
2022/05/21 03:20:13;;;;;;;7.00;4.37;;;;;;;;;;4983534;28;20308;-71
2022/05/21 03:22:39;;;;;;;5.10;4.60;;;;;;;;;;5007879;28;20316;-73
2022/05/21 03:25:07;;;;;;;5.30;4.63;;;;;;;;;;4981600;28;20238;-73
2022/05/21 03:27:33;;;;;;;5.03;4.60;;;;;;;;;;5015008;28;20224;-73
2022/05/21 03:30:03;;;;;;;5.20;4.67;;;;;;;;;;5000228;28;20216;-72
2022/05/21 03:32:28;;;;;;;4.87;4.37;;;;;;;;;;4979540;28;20279;-73
2022/05/21 03:34:56;;;;;;;5.47;4.40;;;;;;;;;;5003892;28;20216;-72
2022/05/21 03:37:22;;;;;;;6.20;5.00;;;;;;;;;;5008188;28;20253;-72
2022/05/21 03:39:53;;;;;;;5.13;4.50;;;;;;;;;;5007658;28;20221;-71
2022/05/21 03:42:24;;;;;;;5.50;4.97;;;;;;;;;;5007224;28;20221;-73
2022/05/21 03:44:52;;;;;;;5.73;4.93;;;;;;;;;;5010280;28;20221;-73
2022/05/21 03:47:22;;;;;;;5.97;5.23;;;;;;;;;;5011524;28;20236;-73
2022/05/21 03:49:47;;;;;;;6.73;5.50;;;;;;;;;;4990740;28;20280;-73
2022/05/21 03:52:15;;;;;;;5.70;5.10;;;;;;;;;;4994191;28;20260;-72
2022/05/21 03:54:45;;;;;;;6.97;5.97;;;;;;;;;;4989358;28;20224;-72
2022/05/21 03:57:11;;;;;;;8.53;6.23;;;;;;;;;;5003620;28;20225;-72
2022/05/21 03:59:37;;;;;;;7.20;6.50;;;;;;;;;;4986380;28;20695;-72
2022/05/21 04:02:03;;;;;;;7.33;6.40;;;;;;;;;;4991494;28;20231;-73
2022/05/21 04:04:32;;;;;;;8.73;6.77;;;;;;;;;;4977540;28;20216;-72
2022/05/21 04:07:02;;;;;;;9.53;6.70;;;;;;;;;;5004269;28;20229;-73
2022/05/21 04:09:28;;;;;;;7.33;6.60;;;;;;;;;;5004980;28;20634;-73
2022/05/21 04:11:59;;;;;;;9.07;7.50;;;;;;;;;;4971249;28;20237;-72
2022/05/21 04:14:27;;;;;;;8.93;8.03;;;;;;;;;;5001836;28;20228;-72
2022/05/21 04:16:59;;;;;;;8.47;7.53;;;;;;;;;;4990529;28;20602;-73
2022/05/21 04:19:26;;;;;;;8.43;7.50;;;;;;;;;;5003021;28;20311;-71
2022/05/21 04:21:52;;;;;;;10.43;8.23;;;;;;;;;;4989893;28;20232;-73
2022/05/21 04:24:22;;;;;;;9.00;8.10;;;;;;;;;;4989609;28;20232;-73
2022/05/21 04:26:52;;;;;;;10.00;8.40;;;;;;;;;;4990771;28;20231;-73
2022/05/21 04:29:23;;;;;;;8.93;8.13;;;;;;;;;;4992986;28;20709;-72
2022/05/21 04:31:53;;;;;;;11.17;9.50;;;;;;;;;;4992307;28;20224;-72
2022/05/21 04:34:21;;;;;;;11.53;9.37;;;;;;;;;;5004124;28;20221;-73
2022/05/21 04:36:47;;;;;;;11.13;9.57;;;;;;;;;;4992714;28;20229;-73
2022/05/21 04:39:13;;;;;;;12.73;9.90;;;;;;;;;;5003309;28;20228;-73
2022/05/21 04:41:38;;;;;;;10.30;9.30;;;;;;;;;;5006264;28;20227;-72
2022/05/21 04:44:06;;;;;;;10.80;9.73;;;;;;;;;;5002426;28;20205;-72
2022/05/21 04:46:32;;;;;;;10.87;9.70;;;;;;;;;;5003208;28;20275;-73
2022/05/21 04:49:01;;;;;;;10.83;9.90;;;;;;;;;;4992897;28;20691;-72
2022/05/21 04:51:26;;;;;;;11.50;10.30;;;;;;;;;;4972791;28;20234;-73
2022/05/21 04:53:55;;;;;;;12.37;11.10;;;;;;;;;;4993941;28;20223;-72
2022/05/21 04:56:20;;;;;;;14.43;11.47;;;;;;;;;;4990421;28;20229;-74
2022/05/21 04:58:46;;;;;;;12.27;10.77;;;;;;;;;;4991477;28;20225;-72
2022/05/21 05:01:11;;;;;;;13.50;11.27;;;;;;;;;;5001045;28;20324;-73
2022/05/21 05:03:37;;;;;;;13.07;11.83;;;;;;;;;;4999941;28;20217;-72
2022/05/21 05:06:02;;;;;;;16.90;12.37;;;;;;;;;;4996987;28;20308;-72
2022/05/21 05:08:28;;;;;;;13.07;11.77;;;;;;;;;;4973569;28;20255;-72
2022/05/21 05:10:55;;;;;;;13.27;11.77;;;;;;;;;;5006471;28;20274;-73
2022/05/21 05:13:23;;;;;;;14.40;12.90;;;;;;;;;;4985802;28;20229;-73
2022/05/21 05:15:52;;;;;;;15.37;13.73;;;;;;;;;;4997216;28;20221;-72
2022/05/21 05:18:23;;;;;;;14.47;13.07;;;;;;;;;;4986819;28;20236;-72
2022/05/21 05:20:49;;;;;;;15.40;13.80;;;;;;;;;;4985495;28;20771;-73
2022/05/21 05:23:14;;;;;;;16.67;15.00;;;;;;;;;;4991342;28;20221;-72
2022/05/21 05:25:44;;;;;;;17.67;15.83;;;;;;;;;;4999297;28;20221;-73
2022/05/21 05:28:18;;;;;;;17.40;15.70;;;;;;;;;;4990733;28;20762;-71
2022/05/21 05:30:44;;;;;;;18.30;16.33;;;;;;;;;;4987722;28;20315;-72
2022/05/21 05:33:09;;;;;;;21.73;18.80;;;;;;;;;;4997075;28;20316;-71
2022/05/21 05:35:35;;;;;;;19.37;17.43;;;;;;;;;;4974455;28;20709;-73
2022/05/21 05:38:19;;;;;;;22.10;20.10;;;;;;;;;;4978509;28;20356;-73
2022/05/21 05:40:46;;;;;;;22.10;20.03;;;;;;;;;;4984998;28;20224;-71
2022/05/21 05:43:12;;;;;;;23.37;20.97;;;;;;;;;;4981559;28;20602;-72
2022/05/21 05:45:38;;;;;;;24.90;21.97;;;;;;;;;;4972648;28;20299;-72
2022/05/21 05:48:05;;;;;;;24.27;21.93;;;;;;;;;;4992957;28;20225;-72
2022/05/21 05:50:32;;;;;;;24.77;22.33;;;;;;;;;;4975692;28;20228;-72
2022/05/21 05:53:05;;;;;;;25.20;22.80;;;;;;;;;;4998795;28;20216;-73
2022/05/21 05:55:33;;;;;;;27.10;24.30;;;;;;;;;;4973539;28;20232;-72
2022/05/21 05:57:59;;;;;;;27.20;24.40;;;;;;;;;;4968821;28;20228;-73
2022/05/21 06:00:26;;;;;;;25.43;23.00;;;;;;;;;;4972967;28;20284;-72
2022/05/21 06:02:58;;;;;;;26.93;23.53;;;;;;;;;;4993101;28;20371;-74
2022/05/21 06:05:23;;;;;;;26.03;23.27;;;;;;;;;;4995571;28;20283;-73
2022/05/21 06:07:55;;;;;;;25.50;23.10;;;;;;;;;;5009289;28;20236;-73
2022/05/21 06:10:30;;;;;;;25.77;23.17;;;;;;;;;;4961284;28;20232;-73
2022/05/21 06:12:56;;;;;;;25.63;23.03;;;;;;;;;;4991895;28;20340;-73
2022/05/21 06:15:21;;;;;;;24.47;22.13;;;;;;;;;;4999099;28;20280;-72
2022/05/21 06:17:50;;;;;;;24.80;22.30;;;;;;;;;;5000602;28;20758;-72
2022/05/21 06:20:18;;;;;;;24.53;21.97;;;;;;;;;;4973303;28;20606;-73
2022/05/21 06:22:48;;;;;;;24.83;22.43;;;;;;;;;;4978562;28;20225;-72
2022/05/21 06:25:19;;;;;;;25.03;22.60;;;;;;;;;;5005668;28;20217;-72
2022/05/21 06:27:46;;;;;;;25.03;22.50;;;;;;;;;;4988612;28;20315;-72
2022/05/21 06:30:14;;;;;;;25.57;22.67;;;;;;;;;;5000102;28;20220;-71
2022/05/21 06:32:42;;;;;;;25.03;22.57;;;;;;;;;;4978640;28;20221;-72
2022/05/21 06:35:09;;;;;;;23.40;21.20;;;;;;;;;;4937214;28;20303;-72
2022/05/21 06:37:35;;;;;;;22.97;20.67;;;;;;;;;;4984458;28;20233;-72
2022/05/21 06:40:04;;;;;;;23.33;21.13;;;;;;;;;;4994837;28;20236;-74
2022/05/21 06:42:32;;;;;;;22.20;20.00;;;;;;;;;;4976774;28;20225;-72
2022/05/21 06:45:03;;;;;;;21.20;19.30;;;;;;;;;;5008451;28;20694;-71
2022/05/21 06:47:28;;;;;;;21.30;19.03;;;;;;;;;;5007536;28;20230;-72
2022/05/21 06:49:55;;;;;;;22.03;19.83;;;;;;;;;;4973601;28;20237;-73
2022/05/21 06:52:22;;;;;;;22.57;20.37;;;;;;;;;;5003375;28;20220;-73
2022/05/21 06:54:47;;;;;;;22.07;19.80;;;;;;;;;;4963171;28;20589;-71
2022/05/21 06:57:13;;;;;;;21.70;19.53;;;;;;;;;;4992190;28;20220;-73
2022/05/21 06:59:41;;;;;;;20.73;18.77;;;;;;;;;;5004037;28;20818;-72
2022/05/21 07:02:06;;;;;;;20.50;18.40;;;;;;;;;;4993054;28;20229;-73
2022/05/21 07:07:34;;;;;;;18.67;16.67;;;;;;;;;;5009102;28;20271;-72
2022/05/21 07:10:07;;;;;;;20.27;16.73;;;;;;;;;;5003999;28;20231;-73
2022/05/21 07:12:35;;;;;;;17.83;16.00;;;;;;;;;;4974573;28;20232;-73
2022/05/21 07:15:01;;;;;;;20.35;16.20;;;;;;;;;;4979743;28;20225;-73
2022/05/21 07:17:29;;;;;;;18.70;16.58;;;;;;;;;;4973133;28;20652;-73
2022/05/21 07:19:54;;;;;;;16.95;14.75;;;;;;;;;;4979138;28;20271;-74
2022/05/21 07:22:22;;;;;;;17.27;15.52;;;;;;;;;;5004167;28;20272;-72
2022/05/21 07:24:50;;;;;;;17.50;15.68;;;;;;;;;;4954914;28;20213;-73
2022/05/21 07:27:18;;;;;;;17.02;15.25;;;;;;;;;;4999560;28;20919;-71
2022/05/21 07:29:44;;;;;;;19.17;15.90;;;;;;;;;;4969528;28;20738;-72
2022/05/21 07:32:22;;;;;;;18.00;16.25;;;;;;;;;;4991777;28;20212;-73
2022/05/21 07:35:03;;;;;;;18.33;16.42;;;;;;;;;;4991880;28;20717;-74
2022/05/21 07:37:28;;;;;;;19.02;15.02;;;;;;;;;;4989068;28;20229;-72
2022/05/21 07:39:54;;;;;;;14.57;13.07;;;;;;;;;;5009547;28;20257;-72
2022/05/21 07:42:24;;;;;;;14.77;13.23;;;;;;;;;;4990926;28;20225;-73
2022/05/21 07:44:49;;;;;;;16.58;13.88;;;;;;;;;;4979683;28;20224;-72
2022/05/21 07:47:15;;;;;;;14.60;12.93;;;;;;;;;;4973965;28;20217;-72
2022/05/21 07:49:41;;;;;;;13.93;12.55;;;;;;;;;;4989526;28;20206;-72
2022/05/21 07:52:06;;;;;;;16.27;12.45;;;;;;;;;;4968468;28;20608;-72
2022/05/21 07:54:32;;;;;;;16.13;12.50;;;;;;;;;;4976362;28;20283;-75
2022/05/21 07:57:06;;;;;;;14.25;11.50;;;;;;;;;;4988663;28;20280;-72
2022/05/21 07:59:32;;;;;;;13.57;11.38;;;;;;;;;;4985013;28;20256;-72
2022/05/21 08:01:57;;;;;;;16.77;11.80;;;;;;;;;;4985617;28;20229;-72
2022/05/21 08:04:26;;;;;;;13.05;10.50;;;;;;;;;;5004462;28;20232;-72
2022/05/21 08:06:54;;;;;;;12.80;9.90;;;;;;;;;;4988164;28;20216;-72
2022/05/21 08:09:21;;;;;;;12.68;9.82;;;;;;;;;;4992392;28;20702;-73
2022/05/21 08:11:48;;;;;;;14.90;9.85;;;;;;;;;;4970902;28;20220;-73
2022/05/21 08:14:13;;;;;;;12.48;9.93;;;;;;;;;;4990713;28;20229;-73
2022/05/21 08:16:41;;;;;;;11.40;9.10;;;;;;;;;;4989368;28;20691;-72
2022/05/21 08:19:12;;;;;;;12.82;7.60;;;;;;;;;;4958419;28;20233;-73
2022/05/21 08:21:40;;;;;;;10.73;7.57;;;;;;;;;;4989699;28;20241;-72
2022/05/21 08:27:02;;;;;;;8.43;6.65;;;;;;;;;;5002761;28;20260;-72
2022/05/21 08:29:43;;;;;;;11.85;7.28;;;;;;;;;;4971051;28;20220;-72
2022/05/21 08:32:13;;;;;;;8.13;6.47;;;;;;;;;;4974587;28;20315;-73
2022/05/21 08:34:38;;;;;;;8.98;6.63;;;;;;;;;;5004720;28;20232;-72
2022/05/21 08:37:07;;;;;;;9.15;6.40;;;;;;;;;;4986541;28;20312;-72
2022/05/21 08:39:32;;;;;;;7.75;5.70;;;;;;;;;;5000720;28;20229;-73
2022/05/21 08:42:09;;;;;;;10.20;5.22;;;;;;;;;;5004045;28;20237;-72
2022/05/21 08:44:48;;;;;;;7.35;5.60;;;;;;;;;;4980311;28;20303;-73
2022/05/21 08:47:22;;;;;;;9.50;5.65;;;;;;;;;;4986164;28;20228;-73
2022/05/21 08:49:55;;;;;;;11.40;5.22;;;;;;;;;;4984754;28;20229;-72
2022/05/21 08:52:25;;;;;;;8.10;5.05;;;;;;;;;;4973443;28;20231;-73
2022/05/21 08:54:55;;;;;;;9.98;4.32;;;;;;;;;;4991338;28;20221;-71
2022/05/21 08:57:22;;;;;;;8.90;3.88;;;;;;;;;;4966507;28;20224;-72
2022/05/21 08:59:51;;;;;;;8.23;4.00;;;;;;;;;;4990397;28;20259;-72
2022/05/21 09:02:19;;;;;;;6.07;3.20;;;;;;;;;;4996111;28;20217;-73
2022/05/21 09:04:48;;;;;;;7.05;3.10;;;;;;;;;;4991311;28;20217;-72
2022/05/21 09:07:24;;;;;;;4.97;2.13;;;;;;;;;;5013829;28;20220;-76
2022/05/21 09:10:01;;;;;;;9.00;2.20;;;;;;;;;;4993963;28;20437;-72
2022/05/21 09:12:48;;;;;;;4.45;2.25;;;;;;;;;;4995128;28;20216;-73
2022/05/21 09:16:54;;;;;;;4.30;1.80;;;;;;;;;;4992598;28;20219;-73
2022/05/21 09:18:07;;;;;;;5.75;1.70;;;;;;;;;;4996762;28;20225;-73
2022/05/21 09:20:41;;;;;;;4.07;1.65;;;;;;;;;;4998414;28;20709;-72
2022/05/21 09:23:11;;;;;;;7.07;2.20;;;;;;;;;;5013963;28;20274;-72
2022/05/21 09:25:39;;;;;;;4.07;1.60;;;;;;;;;;4993877;28;20240;-72
2022/05/21 09:28:06;;;;;;;5.80;1.63;;;;;;;;;;4978036;28;20225;-73
2022/05/21 09:30:42;;;;;;;5.75;1.70;;;;;;;;;;5000678;28;20220;-72
2022/05/21 09:33:35;;;;;;;5.05;1.50;;;;;;;;;;4959336;28;20668;-72
2022/05/21 09:36:01;;;;;;;4.22;1.75;;;;;;;;;;5001489;28;20753;-73
2022/05/21 09:38:28;;;;;;;4.05;1.40;;;;;;;;;;5002819;28;20225;-73
2022/05/21 09:41:13;;;;;;;2.97;1.50;;;;;;;;;;4974977;28;20232;-71
2022/05/21 09:46:31;;;;;;;4.97;1.48;;;;;;;;;;5008318;28;20218;-72
2022/05/21 09:49:26;;;;;;;2.75;1.30;;;;;;;;;;4987677;28;20737;-72
2022/05/21 09:51:53;;;;;;;4.80;1.75;;;;;;;;;;4999083;28;20278;-72
2022/05/21 09:54:36;;;;;;;3.17;1.40;;;;;;;;;;5005727;28;20221;-73
2022/05/21 09:57:02;;;;;;;5.95;1.83;;;;;;;;;;5009540;28;20225;-71
2022/05/21 09:59:32;;;;;;;3.35;1.48;;;;;;;;;;4973048;28;20244;-72
2022/05/21 10:02:04;;;;;;;6.68;1.85;;;;;;;;;;4988140;28;20243;-72
2022/05/21 10:04:48;;;;;;;4.07;1.77;;;;;;;;;;4984786;28;20212;-72
2022/05/21 10:11:02;;;;;;;4.85;2.20;;;;;;;;;;5000342;28;20228;-73
2022/05/21 10:13:43;;;;;;;8.98;2.50;;;;;;;;;;4989094;28;20311;-72
2022/05/21 10:16:20;;;;;;;5.60;2.20;;;;;;;;;;4975258;28;20252;-72
2022/05/21 10:18:50;;;;;;;5.07;2.22;;;;;;;;;;5005288;28;20232;-72
2022/05/21 10:21:19;;;;;;;4.68;1.60;;;;;;;;;;4973226;28;20282;-72
2022/05/21 10:24:05;;;;;;;4.82;1.90;;;;;;;;;;4997136;28;20315;-73
2022/05/21 10:26:55;;;;;;;6.25;2.10;;;;;;;;;;4969200;28;20244;-72
2022/05/21 10:29:42;;;;;;;4.43;1.80;;;;;;;;;;4973710;28;20249;-74
2022/05/21 10:32:28;;;;;;;6.50;1.92;;;;;;;;;;5004432;28;20229;-72
2022/05/21 10:35:28;;;;;;;4.60;1.85;;;;;;;;;;5009590;28;20229;-73
2022/05/21 10:38:16;;;;;;;6.03;1.90;;;;;;;;;;5014949;28;20221;-73
2022/05/21 10:40:50;;;;;;;5.78;1.70;;;;;;;;;;5003976;28;20255;-73
2022/05/21 10:43:44;;;;;;;5.70;1.45;;;;;;;;;;5002471;28;20217;-71
2022/05/21 10:46:35;;;;;;;5.18;1.75;;;;;;;;;;4994422;28;20236;-72
2022/05/21 10:49:23;;;;;;;5.78;1.63;;;;;;;;;;4994292;28;20225;-72
2022/05/21 10:52:07;;;;;;;10.80;1.90;;;;;;;;;;5007645;28;20691;-72
2022/05/21 10:54:54;;;;;;;2.63;1.85;;;;;;;;;;4977911;28;20220;-71
2022/05/21 10:57:34;;;;;;;4.38;1.50;;;;;;;;;;4995002;28;20241;-71
2022/05/21 11:00:13;;;;;;;4.18;1.60;;;;;;;;;;5008230;28;20719;-72
2022/05/21 11:02:56;;;;;;;4.45;1.60;;;;;;;;;;4993021;28;20599;-71
2022/05/21 11:05:45;;;;;;;4.57;1.70;;;;;;;;;;4994474;28;20300;-72
2022/05/21 11:08:30;;;;;;;7.05;1.75;;;;;;;;;;4985612;28;20226;-72
2022/05/21 11:11:14;;;;;;;5.03;1.58;;;;;;;;;;4992430;28;20223;-72
2022/05/21 11:13:55;;;;;;;4.90;1.75;;;;;;;;;;5006882;28;20225;-73
2022/05/21 11:16:29;;;;;;;3.67;1.67;;;;;;;;;;4961068;28;20706;-71
2022/05/21 11:19:01;;;;;;;4.25;1.80;;;;;;;;;;4970249;28;20643;-72
2022/05/21 11:21:51;;;;;;;4.25;2.00;;;;;;;;;;4969753;28;20611;-73
2022/05/21 11:24:28;;;;;;;2.90;1.50;;;;;;;;;;4976572;28;20253;-73
2022/05/21 11:27:10;;;;;;;4.93;1.75;;;;;;;;;;4973490;28;20225;-72
2022/05/21 11:29:42;;;;;;;5.20;1.85;;;;;;;;;;4988487;28;20248;-73
2022/05/21 11:37:59;;;;;;;5.78;1.92;;;;;;;;;;4980010;28;20279;-72
2022/05/21 11:41:24;;;;;;;5.10;1.80;;;;;;;;;;4944378;28;20233;-72
2022/05/21 11:47:05;;;;;;;4.80;1.50;;;;;;;;;;4995701;28;20225;-72
2022/05/21 11:49:45;;;;;;;3.78;1.50;;;;;;;;;;5004206;28;20311;-73
2022/05/21 11:52:28;;;;;;;5.60;1.70;;;;;;;;;;4992922;28;20720;-72
2022/05/21 11:54:55;;;;;;;4.00;1.83;;;;;;;;;;5003804;28;20225;-72
2022/05/21 11:57:40;;;;;;;4.88;1.70;;;;;;;;;;5004511;28;20253;-71
2022/05/21 12:00:17;;;;;;;3.88;1.65;;;;;;;;;;5005978;28;20233;-72
2022/05/21 12:03:06;;;;;;;3.97;1.70;;;;;;;;;;5004426;28;20220;-72
2022/05/21 12:05:31;;;;;;;3.72;1.40;;;;;;;;;;4994554;28;20282;-72
2022/05/21 12:08:10;;;;;;;2.83;1.40;;;;;;;;;;5007597;28;20236;-72
2022/05/21 12:11:36;;;;;;;3.83;1.65;;;;;;;;;;5006536;28;20248;-72
2022/05/21 12:14:05;;;;;;;3.90;1.52;;;;;;;;;;4999192;28;20225;-72
2022/05/21 12:16:30;;;;;;;6.15;1.90;;;;;;;;;;4993040;28;20220;-73
2022/05/21 12:18:57;;;;;;;3.88;1.52;;;;;;;;;;5006764;28;20231;-73
2022/05/21 12:21:29;;;;;;;4.78;1.73;;;;;;;;;;4992928;28;20623;-72
2022/05/21 12:23:55;;;;;;;5.45;1.40;;;;;;;;;;4999490;28;20233;-71
2022/05/21 12:26:35;;;;;;;4.40;1.80;;;;;;;;;;5002157;28;20252;-73
2022/05/21 12:29:13;;;;;;;4.13;1.50;;;;;;;;;;4985028;28;20233;-73
2022/05/21 12:31:48;;;;;;;4.30;1.80;;;;;;;;;;4986005;28;20224;-73
2022/05/21 12:34:47;;;;;;;3.30;2.00;;;;;;;;;;4999249;28;20219;-73
2022/05/21 12:37:51;;;;;;;3.60;1.23;;;;;;;;;;5005937;28;20271;-73
2022/05/21 12:40:19;;;;;;;4.82;1.65;;;;;;;;;;4920044;28;20524;-72
2022/05/21 12:42:57;;;;;;;2.72;1.30;;;;;;;;;;4982177;28;20601;-72
2022/05/21 12:45:50;;;;;;;4.45;1.50;;;;;;;;;;4970961;28;20639;-72
2022/05/21 12:48:32;;;;;;;3.30;1.25;;;;;;;;;;4970938;28;20225;-73
2022/05/21 12:51:01;;;;;;;3.17;1.25;;;;;;;;;;4978106;28;20791;-74
2022/05/21 12:53:35;;;;;;;3.55;1.30;;;;;;;;;;4980456;28;20227;-72
2022/05/21 12:56:05;;;;;;;3.13;1.27;;;;;;;;;;4987890;28;20244;-73
2022/05/21 12:58:33;;;;;;;5.25;1.40;;;;;;;;;;5006218;28;20227;-72
2022/05/21 13:01:00;;;;;;;3.70;1.50;;;;;;;;;;4966460;28;20237;-72
2022/05/21 13:03:33;;;;;;;3.75;1.40;;;;;;;;;;4986817;28;20235;-72
2022/05/21 13:06:04;;;;;;;4.28;1.35;;;;;;;;;;4968541;28;20229;-72
2022/05/21 13:08:30;;;;;;;3.88;1.35;;;;;;;;;;4976548;28;20270;-72
2022/05/21 13:11:00;;;;;;;3.03;1.20;;;;;;;;;;4969035;28;20687;-72
2022/05/21 13:13:30;;;;;;;4.55;1.20;;;;;;;;;;4990383;28;20981;-74
2022/05/21 13:16:00;;;;;;;4.68;1.40;;;;;;;;;;4990303;28;20239;-71
2022/05/21 13:18:51;;;;;;;4.45;1.23;;;;;;;;;;4974128;28;20317;-73
2022/05/21 13:21:36;;;;;;;2.90;1.20;;;;;;;;;;5003865;28;20237;-72
2022/05/21 13:24:10;;;;;;;3.33;1.00;;;;;;;;;;4988520;28;20274;-72
2022/05/21 13:26:38;;;;;;;4.53;1.13;;;;;;;;;;4986234;28;20307;-69
2022/05/21 13:29:20;;;;;;;3.78;1.10;;;;;;;;;;4975880;28;20561;-72
2022/05/21 13:31:46;;;;;;;5.85;1.42;;;;;;;;;;4998993;28;20231;-72
2022/05/21 13:34:23;;;;;;;2.47;1.38;;;;;;;;;;4987207;28;20279;-71
2022/05/21 13:36:51;;;;;;;3.78;1.27;;;;;;;;;;4969559;28;20319;-73
2022/05/21 13:39:28;;;;;;;2.58;1.20;;;;;;;;;;4978350;28;20691;-72
2022/05/21 13:41:54;;;;;;;3.42;1.30;;;;;;;;;;4992706;28;20315;-71
2022/05/21 13:44:24;;;;;;;2.92;1.25;;;;;;;;;;4974669;28;20221;-71
2022/05/21 13:46:56;;;;;;;4.07;1.52;;;;;;;;;;4971928;28;20233;-73
2022/05/21 13:49:33;;;;;;;5.03;1.40;;;;;;;;;;5003514;28;20313;-73
2022/05/21 13:52:01;;;;;;;5.68;1.20;;;;;;;;;;5000907;28;20221;-72
2022/05/21 13:54:30;;;;;;;3.83;1.23;;;;;;;;;;4987690;28;20217;-72
2022/05/21 13:57:09;;;;;;;4.32;1.40;;;;;;;;;;4970595;28;20212;-74
2022/05/21 14:00:01;;;;;;;3.80;1.20;;;;;;;;;;4988505;28;20385;-72
2022/05/21 14:02:38;;;;;;;4.65;1.30;;;;;;;;;;4965794;28;20225;-72
2022/05/21 14:05:25;;;;;;;2.33;1.20;;;;;;;;;;4978557;28;20228;-74
2022/05/21 14:07:54;;;;;;;3.58;1.17;;;;;;;;;;5004882;28;20271;-73
2022/05/21 14:10:55;;;;;;;3.13;1.00;;;;;;;;;;4963169;28;20217;-72
2022/05/21 14:13:34;;;;;;;4.82;1.20;;;;;;;;;;4991784;28;20221;-74
2022/05/21 14:16:23;;;;;;;2.60;1.10;;;;;;;;;;5008192;28;20686;-73
2022/05/21 14:19:06;;;;;;;4.63;1.10;;;;;;;;;;5011383;28;20775;-73
2022/05/21 14:21:37;;;;;;;3.53;1.30;;;;;;;;;;4961470;28;20228;-73
2022/05/21 14:24:23;;;;;;;3.72;1.13;;;;;;;;;;5003694;28;20231;-73
2022/05/21 14:26:53;;;;;;;1.88;1.02;;;;;;;;;;4996748;28;20785;-73
2022/05/21 14:29:37;;;;;;;4.78;1.30;;;;;;;;;;4985599;28;20340;-72
2022/05/21 14:32:18;;;;;;;2.55;1.10;;;;;;;;;;4990220;28;20285;-72
2022/05/21 14:34:44;;;;;;;5.55;1.65;;;;;;;;;;4993439;28;20574;-72
2022/05/21 14:37:23;;;;;;;4.05;1.45;;;;;;;;;;5008186;28;20221;-73
2022/05/21 14:39:54;;;;;;;3.78;1.60;;;;;;;;;;4994441;28;20311;-74
2022/05/21 14:42:19;;;;;;;3.03;1.50;;;;;;;;;;4973700;28;20249;-72
2022/05/21 14:44:47;;;;;;;5.13;1.50;;;;;;;;;;4973292;28;20765;-74
2022/05/21 14:52:53;;;;;;;4.72;1.40;;;;;;;;;;5004953;28;20626;-72
2022/05/21 14:55:19;;;;;;;3.05;1.42;;;;;;;;;;4979432;28;20224;-72
2022/05/21 14:57:46;;;;;;;4.00;1.10;;;;;;;;;;4990803;28;20232;-72
2022/05/21 15:00:12;;;;;;;3.70;0.90;;;;;;;;;;4996080;28;20208;-73
2022/05/21 15:02:40;;;;;;;2.80;1.20;;;;;;;;;;4991672;28;20227;-72
2022/05/21 15:05:09;;;;;;;5.57;1.30;;;;;;;;;;4977605;28;20224;-73
2022/05/21 15:07:39;;;;;;;5.13;1.38;;;;;;;;;;4994129;28;20229;-72
2022/05/21 15:10:07;;;;;;;4.10;1.33;;;;;;;;;;4978751;28;20224;-72
2022/05/21 15:12:36;;;;;;;3.67;1.02;;;;;;;;;;4960199;28;20232;-72
2022/05/21 15:15:01;;;;;;;4.45;1.17;;;;;;;;;;5007946;28;20595;-72
2022/05/21 15:17:29;;;;;;;3.25;1.27;;;;;;;;;;5003605;28;20264;-72
2022/05/21 15:19:56;;;;;;;3.42;1.17;;;;;;;;;;5008928;28;20228;-72
2022/05/21 15:22:23;;;;;;;3.03;1.25;;;;;;;;;;4988826;28;20217;-73
2022/05/21 15:24:53;;;;;;;3.83;1.10;;;;;;;;;;4986148;28;20224;-72
2022/05/21 15:27:19;;;;;;;2.92;1.10;;;;;;;;;;4973661;28;20233;-73
2022/05/21 15:29:49;;;;;;;2.70;1.50;;;;;;;;;;5003331;28;20233;-72
2022/05/21 15:32:15;;;;;;;2.75;1.10;;;;;;;;;;4992045;28;20255;-73
2022/05/21 15:34:41;;;;;;;5.22;1.10;;;;;;;;;;4978377;28;20221;-73
2022/05/21 15:37:09;;;;;;;4.00;1.40;;;;;;;;;;5008838;28;20838;-74